createdAt,value
2018-09-10T00:00:54.295Z,89.80
2018-09-10T00:03:21.454Z,90.20
2018-09-10T00:05:48.590Z,90.60
2018-09-10T00:08:15.721Z,91.20
2018-09-10T00:10:42.854Z,91.60
2018-09-10T00:13:09.958Z,92.20
2018-09-10T00:15:37.053Z,92.90
2018-09-10T00:18:04.224Z,93.20
2018-09-10T00:20:31.348Z,93.70
2018-09-10T00:22:58.565Z,93.80
2018-09-10T00:25:25.798Z,93.30
2018-09-10T00:27:53.778Z,93.00
2018-09-10T00:30:20.901Z,93.30
2018-09-10T00:32:48.018Z,93.50
2018-09-10T00:35:15.134Z,93.30
2018-09-10T00:37:42.251Z,93.90
2018-09-10T00:40:09.400Z,94.20
2018-09-10T00:42:36.540Z,93.70
2018-09-10T00:45:03.778Z,94.60
2018-09-10T00:47:30.897Z,95.10
2018-09-10T00:49:58.079Z,95.80
2018-09-10T00:52:25.271Z,96.70
2018-09-10T00:54:52.364Z,97.70
2018-09-10T00:57:19.512Z,98.60
2018-09-10T00:59:46.617Z,99.50
2018-09-10T01:02:13.981Z,99.90
2018-09-10T01:04:41.093Z,99.90
2018-09-10T01:07:08.218Z,99.90
2018-09-10T01:09:35.338Z,99.90
2018-09-10T01:12:02.460Z,99.90
2018-09-10T01:14:29.601Z,99.90
2018-09-10T01:16:56.772Z,99.90
2018-09-10T01:19:23.963Z,99.90
2018-09-10T01:21:51.151Z,99.90
2018-09-10T01:24:18.269Z,99.90
2018-09-10T01:26:45.357Z,99.90
2018-09-10T01:29:12.441Z,99.90
2018-09-10T01:31:39.544Z,99.90
2018-09-10T01:34:12.528Z,99.90
2018-09-10T01:36:39.629Z,99.90
2018-09-10T01:39:07.549Z,99.90
2018-09-10T01:41:34.697Z,99.90
2018-09-10T01:44:01.926Z,99.90
2018-09-10T01:46:29.074Z,99.90
2018-09-10T01:48:56.242Z,99.90
2018-09-10T01:51:23.372Z,99.90
2018-09-10T01:56:24.435Z,99.90
2018-09-10T01:58:51.557Z,99.90
2018-09-10T02:01:18.665Z,99.90
2018-09-10T02:03:45.805Z,99.90
2018-09-10T02:06:12.983Z,99.90
2018-09-10T02:08:40.129Z,99.90
2018-09-10T02:11:07.226Z,99.90
2018-09-10T02:13:34.394Z,99.90
2018-09-10T02:16:01.570Z,99.90
2018-09-10T02:18:28.748Z,99.90
2018-09-10T02:20:56.115Z,99.90
2018-09-10T02:23:23.288Z,99.90
2018-09-10T02:25:50.442Z,99.90
2018-09-10T02:28:17.558Z,99.90
2018-09-10T02:30:44.682Z,99.90
2018-09-10T02:33:11.826Z,99.90
2018-09-10T02:35:38.973Z,99.90
2018-09-10T02:38:06.098Z,99.90
2018-09-10T02:40:33.395Z,99.90
2018-09-10T02:43:00.790Z,99.90
2018-09-10T02:45:27.975Z,99.90
2018-09-10T02:47:55.326Z,99.90
2018-09-10T02:50:22.478Z,99.90
2018-09-10T02:52:49.643Z,99.90
2018-09-10T02:55:16.951Z,99.90
2018-09-10T02:57:43.998Z,99.90
2018-09-10T03:00:11.143Z,99.90
2018-09-10T03:02:38.677Z,99.90
2018-09-10T03:05:05.911Z,99.90
2018-09-10T03:07:33.049Z,99.90
2018-09-10T03:10:00.285Z,99.90
2018-09-10T03:12:27.539Z,99.90
2018-09-10T03:14:54.915Z,99.90
2018-09-10T03:17:22.085Z,99.90
2018-09-10T03:19:49.206Z,99.90
2018-09-10T03:22:16.326Z,99.90
2018-09-10T03:24:43.445Z,99.90
2018-09-10T03:27:10.557Z,99.90
2018-09-10T03:29:37.655Z,99.90
2018-09-10T03:32:04.843Z,99.90
2018-09-10T03:34:31.963Z,99.90
2018-09-10T03:36:59.117Z,99.90
2018-09-10T03:39:26.283Z,99.90
2018-09-10T03:41:53.393Z,99.90
2018-09-10T03:44:20.514Z,99.90
2018-09-10T03:46:47.618Z,99.90
2018-09-10T03:49:14.743Z,99.90
2018-09-10T03:51:41.866Z,99.90
2018-09-10T03:54:08.987Z,99.90
2018-09-10T03:56:36.101Z,99.90
2018-09-10T03:59:03.238Z,99.90
2018-09-10T04:01:30.384Z,99.90
2018-09-10T04:03:57.584Z,99.90
2018-09-10T04:06:24.754Z,99.90
2018-09-10T04:08:51.862Z,99.90
2018-09-10T04:11:18.975Z,99.90
2018-09-10T04:13:46.086Z,99.90
2018-09-10T04:16:13.227Z,99.90
2018-09-10T04:18:40.338Z,99.90
2018-09-10T04:21:07.481Z,99.90
2018-09-10T04:23:34.611Z,99.90
2018-09-10T04:26:01.815Z,99.90
2018-09-10T04:28:28.927Z,99.90
2018-09-10T04:30:56.423Z,99.90
2018-09-10T04:33:23.615Z,99.90
2018-09-10T04:35:50.760Z,99.90
2018-09-10T04:38:17.874Z,99.90
2018-09-10T04:40:44.998Z,99.90
2018-09-10T04:43:12.108Z,99.90
2018-09-10T04:45:39.234Z,99.90
2018-09-10T04:48:06.387Z,99.90
2018-09-10T04:50:33.515Z,99.90
2018-09-10T04:53:00.774Z,99.90
2018-09-10T04:55:28.032Z,99.90
2018-09-10T04:57:55.311Z,99.90
2018-09-10T05:00:22.480Z,99.90
2018-09-10T05:02:49.613Z,99.90
2018-09-10T05:05:16.763Z,99.90
2018-09-10T05:07:43.971Z,99.90
2018-09-10T05:10:11.126Z,99.90
2018-09-10T05:12:38.422Z,99.90
2018-09-10T05:15:05.566Z,99.90
2018-09-10T05:17:32.708Z,99.90
2018-09-10T05:19:59.987Z,99.90
2018-09-10T05:22:27.181Z,99.90
2018-09-10T05:24:54.303Z,99.90
2018-09-10T05:27:21.429Z,99.90
2018-09-10T05:29:48.579Z,99.90
2018-09-10T05:32:15.688Z,99.90
2018-09-10T05:34:42.799Z,99.90
2018-09-10T05:37:09.910Z,99.90
2018-09-10T05:39:37.030Z,99.90
2018-09-10T05:42:04.149Z,99.90
2018-09-10T05:44:31.328Z,99.90
2018-09-10T05:46:58.503Z,99.90
2018-09-10T05:49:25.745Z,99.30
2018-09-10T05:51:52.837Z,98.00
2018-09-10T05:54:19.969Z,96.30
2018-09-10T05:56:47.150Z,95.20
2018-09-10T05:59:14.322Z,94.90
2018-09-10T06:01:41.440Z,91.60
2018-09-10T06:04:08.572Z,89.10
2018-09-10T06:06:35.668Z,83.60
2018-09-10T06:09:03.818Z,81.80
2018-09-10T06:11:31.027Z,81.10
2018-09-10T06:13:58.325Z,80.80
2018-09-10T06:16:25.520Z,80.10
2018-09-10T06:18:52.643Z,79.60
2018-09-10T06:21:19.753Z,80.60
2018-09-10T06:23:46.863Z,82.20
2018-09-10T06:26:14.018Z,80.20
2018-09-10T06:28:41.167Z,76.60
2018-09-10T06:31:08.661Z,70.40
2018-09-10T06:33:36.017Z,61.30
2018-09-10T06:36:03.175Z,55.00
2018-09-10T06:38:30.370Z,50.80
2018-09-10T06:40:57.561Z,48.40
2018-09-10T06:43:24.794Z,49.90
2018-09-10T06:45:52.131Z,50.20
2018-09-10T06:48:19.270Z,47.60
2018-09-10T06:50:46.463Z,47.50
2018-09-10T06:53:13.526Z,48.90
2018-09-10T06:55:40.690Z,49.90
2018-09-10T06:58:07.814Z,49.70
2018-09-10T07:00:35.731Z,51.00
2018-09-10T07:03:02.900Z,52.00
2018-09-10T07:05:30.129Z,53.10
2018-09-10T07:07:57.369Z,53.90
2018-09-10T07:10:24.654Z,54.70
2018-09-10T07:12:51.798Z,54.20
2018-09-10T07:15:18.966Z,53.10
2018-09-10T07:17:46.052Z,53.50
2018-09-10T07:20:13.189Z,54.70
2018-09-10T07:22:40.304Z,56.40
2018-09-10T07:25:07.423Z,58.30
2018-09-10T07:27:34.562Z,57.90
2018-09-10T07:30:01.767Z,57.60
2018-09-10T07:32:28.973Z,56.40
2018-09-10T07:34:56.163Z,55.00
2018-09-10T07:37:23.486Z,53.90
2018-09-10T07:39:50.605Z,52.10
2018-09-10T07:42:17.730Z,51.90
2018-09-10T07:44:44.890Z,51.20
2018-09-10T07:47:12.071Z,52.20
2018-09-10T07:49:39.212Z,53.10
2018-09-10T07:52:06.403Z,53.20
2018-09-10T07:54:33.588Z,52.50
2018-09-10T07:57:00.710Z,53.50
2018-09-10T07:59:27.881Z,51.40
2018-09-10T08:01:55.078Z,49.20
2018-09-10T08:04:22.205Z,48.30
2018-09-10T08:06:49.422Z,46.70
2018-09-10T08:09:16.683Z,43.80
2018-09-10T08:11:43.658Z,42.30
2018-09-10T08:14:10.799Z,42.80
2018-09-10T08:16:38.025Z,43.00
2018-09-10T08:19:05.083Z,42.30
2018-09-10T08:21:32.218Z,41.90
2018-09-10T08:23:59.376Z,41.70
2018-09-10T08:26:26.657Z,42.30
2018-09-10T08:28:53.850Z,42.50
2018-09-10T08:31:20.970Z,42.70
2018-09-10T08:33:48.082Z,42.60
2018-09-10T08:36:15.215Z,43.40
2018-09-10T08:38:42.336Z,44.80
2018-09-10T08:41:09.453Z,44.50
2018-09-10T08:43:36.656Z,44.10
2018-09-10T08:46:03.832Z,43.80
2018-09-10T08:48:30.951Z,43.80
2018-09-10T08:50:58.194Z,44.10
2018-09-10T08:53:25.393Z,43.60
2018-09-10T08:55:52.797Z,42.60
2018-09-10T08:58:19.665Z,42.80
2018-09-10T09:00:46.788Z,42.50
2018-09-10T09:03:13.889Z,43.00
2018-09-10T09:05:40.995Z,43.50
2018-09-10T09:08:08.337Z,43.80
2018-09-10T09:10:35.448Z,44.80
2018-09-10T09:13:02.610Z,44.80
2018-09-10T09:15:29.752Z,45.30
2018-09-10T09:17:57.526Z,45.60
2018-09-10T09:20:24.794Z,45.70
2018-09-10T09:22:51.910Z,46.20
2018-09-10T09:25:19.031Z,46.10
2018-09-10T09:27:46.137Z,45.90
2018-09-10T09:30:13.379Z,45.60
2018-09-10T09:32:40.452Z,46.00
2018-09-10T09:35:07.593Z,45.80
2018-09-10T09:37:40.387Z,45.50
2018-09-10T09:40:13.542Z,45.70
2018-09-10T09:42:46.308Z,45.80
2018-09-10T09:45:19.330Z,46.10
2018-09-10T09:47:46.497Z,45.40
2018-09-10T09:50:13.601Z,45.10
2018-09-10T09:52:40.729Z,44.60
2018-09-10T09:55:07.852Z,44.70
2018-09-10T09:57:34.991Z,44.70
2018-09-10T10:00:02.186Z,45.00
2018-09-10T10:02:35.245Z,44.90
2018-09-10T10:05:02.423Z,45.00
2018-09-10T10:07:29.577Z,45.00
2018-09-10T10:09:56.779Z,44.80
2018-09-10T10:12:24.172Z,45.00
2018-09-10T10:14:51.148Z,45.60
2018-09-10T10:17:20.197Z,45.80
2018-09-10T10:19:47.829Z,46.10
2018-09-10T10:22:15.111Z,46.20
2018-09-10T10:24:42.278Z,46.00
2018-09-10T10:27:09.513Z,46.00
2018-09-10T10:29:36.666Z,46.00
2018-09-10T10:32:03.830Z,46.00
2018-09-10T10:34:30.975Z,46.20
2018-09-10T10:36:58.126Z,46.00
2018-09-10T10:39:25.295Z,46.00
2018-09-10T10:41:52.424Z,46.40
2018-09-10T10:44:19.553Z,46.50
2018-09-10T10:46:46.645Z,46.80
2018-09-10T10:49:13.774Z,47.90
2018-09-10T10:51:40.958Z,47.90
2018-09-10T10:54:08.128Z,48.60
2018-09-10T10:56:35.249Z,48.80
2018-09-10T10:59:02.382Z,49.30
2018-09-10T11:01:29.567Z,49.30
2018-09-10T11:03:56.746Z,49.40
2018-09-10T11:06:23.921Z,50.00
2018-09-10T11:08:51.039Z,50.10
2018-09-10T11:11:18.313Z,50.20
2018-09-10T11:13:45.478Z,50.00
2018-09-10T11:16:12.618Z,50.10
2018-09-10T11:18:39.738Z,50.10
2018-09-10T11:21:06.922Z,50.10
2018-09-10T11:23:34.058Z,49.70
2018-09-10T11:26:01.226Z,49.90
2018-09-10T11:28:28.417Z,49.90
2018-09-10T11:30:55.632Z,50.00
2018-09-10T11:33:22.769Z,50.00
2018-09-10T11:35:49.881Z,49.70
2018-09-10T11:38:17.026Z,50.10
2018-09-10T11:40:44.190Z,49.80
2018-09-10T11:43:11.338Z,50.00
2018-09-10T11:45:38.525Z,50.10
2018-09-10T11:48:05.674Z,49.70
2018-09-10T11:50:33.325Z,49.80
2018-09-10T11:53:00.505Z,49.70
2018-09-10T11:55:27.659Z,49.70
2018-09-10T11:57:54.922Z,50.10
2018-09-10T12:00:22.081Z,50.00
2018-09-10T12:02:49.233Z,49.90
2018-09-10T12:05:16.364Z,50.00
2018-09-10T12:07:43.480Z,49.70
2018-09-10T12:10:10.603Z,50.20
2018-09-10T12:12:37.873Z,50.00
2018-09-10T12:15:05.365Z,49.50
2018-09-10T12:17:32.511Z,49.30
2018-09-10T12:19:59.729Z,49.20
2018-09-10T12:22:26.943Z,49.00
2018-09-10T12:24:54.052Z,48.90
2018-09-10T12:27:21.326Z,48.60
2018-09-10T12:29:48.654Z,48.10
2018-09-10T12:32:15.760Z,47.80
2018-09-10T12:34:42.887Z,47.50
2018-09-10T12:37:10.015Z,47.90
2018-09-10T12:39:37.157Z,46.90
2018-09-10T12:42:04.295Z,46.90
2018-09-10T12:44:31.453Z,46.80
2018-09-10T12:46:58.647Z,46.50
2018-09-10T12:49:25.827Z,46.10
2018-09-10T12:51:52.951Z,45.90
2018-09-10T12:54:20.082Z,45.50
2018-09-10T12:56:47.229Z,45.20
2018-09-10T12:59:14.352Z,45.10
2018-09-10T13:01:41.483Z,44.70
2018-09-10T13:04:08.644Z,44.50
2018-09-10T13:06:35.779Z,44.80
2018-09-10T13:09:04.073Z,44.70
2018-09-10T13:11:31.477Z,44.30
2018-09-10T13:13:58.702Z,43.90
2018-09-10T13:16:25.868Z,44.00
2018-09-10T13:18:52.971Z,43.80
2018-09-10T13:21:20.122Z,44.00
2018-09-10T13:23:47.243Z,43.80
2018-09-10T13:26:14.384Z,44.50
2018-09-10T13:28:41.565Z,44.00
2018-09-10T13:31:08.753Z,44.10
2018-09-10T13:33:35.910Z,43.50
2018-09-10T13:36:03.118Z,43.20
2018-09-10T13:38:30.558Z,43.00
2018-09-10T13:40:57.764Z,42.90
2018-09-10T13:43:25.571Z,42.80
2018-09-10T13:45:52.741Z,42.70
2018-09-10T13:48:19.874Z,42.70
2018-09-10T13:50:47.027Z,42.90
2018-09-10T13:53:14.181Z,42.90
2018-09-10T13:55:41.310Z,42.80
2018-09-10T13:58:08.732Z,42.70
2018-09-10T14:00:35.871Z,42.50
2018-09-10T14:03:03.025Z,42.60
2018-09-10T14:05:30.230Z,42.40
2018-09-10T14:07:57.428Z,42.30
2018-09-10T14:10:24.558Z,42.00
2018-09-10T14:12:51.682Z,41.80
2018-09-10T14:15:18.822Z,41.70
2018-09-10T14:17:45.939Z,41.70
2018-09-10T14:20:13.066Z,41.20
2018-09-10T14:22:40.232Z,41.10
2018-09-10T14:25:07.364Z,41.00
2018-09-10T14:27:34.510Z,41.20
2018-09-10T14:30:01.679Z,41.60
2018-09-10T14:32:29.045Z,41.80
2018-09-10T14:34:56.195Z,42.40
2018-09-10T14:37:23.374Z,42.60
2018-09-10T14:39:50.616Z,42.50
2018-09-10T14:42:17.767Z,42.60
2018-09-10T14:44:44.954Z,42.50
2018-09-10T14:47:12.098Z,42.30
2018-09-10T14:49:39.222Z,42.60
2018-09-10T14:52:06.370Z,42.70
2018-09-10T14:54:33.480Z,42.70
2018-09-10T14:57:00.671Z,42.60
2018-09-10T14:59:27.892Z,42.60
2018-09-10T15:01:55.024Z,42.80
2018-09-10T15:04:22.228Z,42.80
2018-09-10T15:06:49.329Z,43.00
2018-09-10T15:09:16.440Z,43.20
2018-09-10T15:11:43.630Z,43.00
2018-09-10T15:14:10.787Z,43.20
2018-09-10T15:16:37.941Z,43.10
2018-09-10T15:19:05.172Z,42.40
2018-09-10T15:21:32.246Z,41.80
2018-09-10T15:23:59.389Z,42.00
2018-09-10T15:26:26.650Z,42.50
2018-09-10T15:28:53.899Z,42.70
2018-09-10T15:31:21.038Z,43.00
2018-09-10T15:33:48.157Z,43.10
2018-09-10T15:36:15.281Z,43.30
2018-09-10T15:38:42.411Z,43.70
2018-09-10T15:41:09.544Z,43.90
2018-09-10T15:43:36.691Z,44.00
2018-09-10T15:46:06.032Z,44.00
2018-09-10T15:48:38.690Z,43.90
2018-09-10T15:51:05.971Z,43.40
2018-09-10T15:53:33.202Z,43.30
2018-09-10T15:56:00.367Z,43.60
2018-09-10T15:58:27.498Z,43.50
2018-09-10T16:00:54.652Z,43.60
2018-09-10T16:03:21.830Z,43.80
2018-09-10T16:05:49.377Z,44.00
2018-09-10T16:08:16.487Z,44.10
2018-09-10T16:10:43.920Z,44.50
2018-09-10T16:13:11.197Z,44.80
2018-09-10T16:15:38.351Z,44.90
2018-09-10T16:18:05.535Z,44.80
2018-09-10T16:20:32.678Z,44.90
2018-09-10T16:22:59.841Z,44.80
2018-09-10T16:25:26.980Z,44.60
2018-09-10T16:27:54.490Z,44.80
2018-09-10T16:30:21.696Z,44.70
2018-09-10T16:32:48.881Z,45.00
2018-09-10T16:35:16.093Z,45.20
2018-09-10T16:37:43.204Z,45.50
2018-09-10T16:40:10.329Z,46.10
2018-09-10T16:42:37.446Z,46.60
2018-09-10T16:45:04.894Z,46.80
2018-09-10T16:47:31.985Z,47.20
2018-09-10T16:49:59.150Z,47.50
2018-09-10T16:52:26.252Z,47.90
2018-09-10T16:54:53.686Z,48.00
2018-09-10T16:57:20.875Z,48.30
2018-09-10T16:59:48.037Z,48.50
2018-09-10T17:02:15.166Z,48.60
2018-09-10T17:04:43.456Z,48.80
2018-09-10T17:07:10.689Z,49.90
2018-09-10T17:09:37.798Z,50.90
2018-09-10T17:12:05.024Z,51.60
2018-09-10T17:14:34.946Z,52.20
2018-09-10T17:17:02.350Z,52.50
2018-09-10T17:19:29.486Z,53.50
2018-09-10T17:21:56.625Z,53.40
2018-09-10T17:24:23.795Z,53.60
2018-09-10T17:26:50.972Z,53.90
2018-09-10T17:29:18.186Z,54.20
2018-09-10T17:31:45.305Z,54.50
2018-09-10T17:34:12.467Z,54.50
2018-09-10T17:36:39.778Z,55.00
2018-09-10T17:39:07.075Z,55.00
2018-09-10T17:41:34.189Z,55.00
2018-09-10T17:44:01.302Z,54.80
2018-09-10T17:46:28.404Z,54.90
2018-09-10T17:48:55.531Z,54.80
2018-09-10T17:51:22.694Z,54.90
2018-09-10T17:53:49.853Z,55.00
2018-09-10T17:56:17.026Z,55.00
2018-09-10T17:58:44.134Z,54.50
2018-09-10T18:01:11.260Z,54.50
2018-09-10T18:03:38.467Z,54.40
2018-09-10T18:06:05.589Z,54.30
2018-09-10T18:08:32.698Z,54.30
2018-09-10T18:10:59.961Z,54.70
2018-09-10T18:13:26.963Z,54.70
2018-09-10T18:15:54.123Z,55.20
2018-09-10T18:18:21.330Z,55.90
2018-09-10T18:20:48.485Z,55.50
2018-09-10T18:23:15.638Z,55.80
2018-09-10T18:25:42.786Z,55.70
2018-09-10T18:28:09.902Z,55.80
2018-09-10T18:30:37.028Z,56.00
2018-09-10T18:33:04.302Z,56.20
2018-09-10T18:35:31.453Z,56.60
2018-09-10T18:37:58.635Z,56.90
2018-09-10T18:40:25.915Z,57.30
2018-09-10T18:42:53.174Z,57.50
2018-09-10T18:45:20.351Z,57.90
2018-09-10T18:47:47.506Z,58.20
2018-09-10T18:50:14.639Z,58.50
2018-09-10T18:52:42.174Z,58.80
2018-09-10T18:55:09.317Z,59.60
2018-09-10T18:57:36.446Z,59.50
2018-09-10T19:00:04.485Z,59.70
2018-09-10T19:02:31.638Z,60.00
2018-09-10T19:04:58.806Z,60.70
2018-09-10T19:07:25.954Z,61.20
2018-09-10T19:09:53.339Z,61.80
2018-09-10T19:12:20.552Z,62.20
2018-09-10T19:14:47.698Z,63.00
2018-09-10T19:17:14.843Z,63.20
2018-09-10T19:19:41.973Z,64.00
2018-09-10T19:22:09.110Z,64.30
2018-09-10T19:24:36.245Z,63.90
2018-09-10T19:27:03.380Z,63.90
2018-09-10T19:29:30.493Z,64.00
2018-09-10T19:31:57.634Z,64.30
2018-09-10T19:34:24.774Z,65.30
2018-09-10T19:36:51.947Z,64.50
2018-09-10T19:39:19.118Z,64.90
2018-09-10T19:41:46.244Z,65.00
2018-09-10T19:44:13.510Z,65.10
2018-09-10T19:46:40.623Z,65.90
2018-09-10T19:49:07.778Z,65.80
2018-09-10T19:51:34.991Z,65.90
2018-09-10T19:54:02.122Z,66.60
2018-09-10T19:56:29.287Z,66.80
2018-09-10T19:58:56.430Z,66.90
2018-09-10T20:01:23.595Z,68.30
2018-09-10T20:03:50.815Z,67.50
2018-09-10T20:06:18.197Z,67.80
2018-09-10T20:08:45.347Z,68.00
2018-09-10T20:11:12.502Z,67.60
2018-09-10T20:13:39.632Z,67.70
2018-09-10T20:16:06.806Z,68.80
2018-09-10T20:18:34.014Z,69.00
2018-09-10T20:21:01.189Z,68.00
2018-09-10T20:23:28.310Z,67.30
2018-09-10T20:25:55.499Z,68.70
2018-09-10T20:28:22.662Z,68.40
2018-09-10T20:30:49.849Z,68.20
2018-09-10T20:33:17.001Z,69.00
2018-09-10T20:35:44.160Z,69.30
2018-09-10T20:38:11.341Z,69.60
2018-09-10T20:40:38.459Z,69.10
2018-09-10T20:43:05.737Z,70.10
2018-09-10T20:45:32.845Z,71.60
2018-09-10T20:47:59.966Z,72.40
2018-09-10T20:50:27.118Z,73.60
2018-09-10T20:52:54.266Z,74.60
2018-09-10T20:55:21.504Z,75.90
2018-09-10T20:57:48.690Z,77.10
2018-09-10T21:00:15.825Z,77.70
2018-09-10T21:02:43.003Z,78.80
2018-09-10T21:05:10.179Z,78.90
2018-09-10T21:07:37.351Z,79.80
2018-09-10T21:10:04.737Z,80.80
2018-09-10T21:12:31.875Z,81.60
2018-09-10T21:14:58.990Z,81.60
2018-09-10T21:17:26.122Z,81.90
2018-09-10T21:19:53.311Z,81.80
2018-09-10T21:22:20.472Z,82.10
2018-09-10T21:24:47.613Z,82.20
2018-09-10T21:27:14.765Z,82.60
2018-09-10T21:29:41.907Z,83.80
2018-09-10T21:32:09.037Z,84.40
2018-09-10T21:34:36.145Z,85.10
2018-09-10T21:37:03.298Z,86.50
2018-09-10T21:39:30.429Z,86.50
2018-09-10T21:41:57.586Z,87.90
2018-09-10T21:44:24.742Z,88.90
2018-09-10T21:46:51.904Z,89.80
2018-09-10T21:49:19.091Z,90.60
2018-09-10T21:51:46.234Z,91.00
2018-09-10T21:54:13.355Z,91.30
2018-09-10T21:56:40.523Z,91.20
2018-09-10T21:59:07.640Z,91.40
2018-09-10T22:01:34.781Z,91.70
2018-09-10T22:04:01.947Z,92.00
2018-09-10T22:06:29.102Z,91.90
2018-09-10T22:08:56.259Z,91.90
2018-09-10T22:11:23.421Z,92.50
2018-09-10T22:13:50.610Z,92.60
2018-09-10T22:16:17.877Z,93.20
2018-09-10T22:18:45.031Z,94.00
2018-09-10T22:21:12.161Z,94.40
2018-09-10T22:23:39.309Z,95.40
2018-09-10T22:26:06.443Z,96.10
2018-09-10T22:28:33.559Z,97.00
2018-09-10T22:31:00.680Z,97.70
2018-09-10T22:33:27.828Z,97.80
2018-09-10T22:35:55.022Z,98.10
2018-09-10T22:38:28.948Z,98.70
2018-09-10T22:40:56.118Z,98.90
2018-09-10T22:43:23.504Z,99.00
2018-09-10T22:45:51.250Z,99.70
2018-09-10T22:48:18.399Z,99.90
2018-09-10T22:50:45.529Z,99.90
2018-09-10T22:53:12.649Z,99.90
2018-09-10T22:55:39.777Z,99.90
2018-09-10T22:58:06.883Z,99.90
2018-09-10T23:00:33.973Z,99.90
2018-09-10T23:03:01.139Z,99.90
2018-09-10T23:05:28.282Z,99.90
2018-09-10T23:07:55.414Z,99.90
2018-09-10T23:10:22.530Z,99.90
2018-09-10T23:12:49.655Z,99.90
2018-09-10T23:15:16.781Z,99.90
2018-09-10T23:17:43.894Z,99.90
2018-09-10T23:20:11.110Z,99.90
2018-09-10T23:22:38.238Z,99.90
2018-09-10T23:25:05.408Z,99.90
2018-09-10T23:27:32.634Z,99.90
2018-09-10T23:29:59.812Z,99.90
2018-09-10T23:32:26.960Z,99.90
2018-09-10T23:34:54.091Z,99.90
2018-09-10T23:37:21.206Z,99.90
2018-09-10T23:39:48.344Z,99.90
2018-09-10T23:42:15.476Z,99.90
2018-09-10T23:44:42.620Z,99.90
2018-09-10T23:47:09.753Z,99.90
2018-09-10T23:49:36.873Z,99.90
2018-09-10T23:52:04.423Z,99.90
2018-09-10T23:54:31.618Z,99.90
2018-09-10T23:56:58.755Z,99.90
2018-09-10T23:59:25.914Z,99.90
